EmailTwitter


Surface observations / United Kingdom / EGTE (03839)

Regions: Quebec | Canada | USA | Europe | France | UK | Elsewhere
Station
Display
Info & Location for EGTE (03839) | Help decoding METAR

Weather Conditions observed on 2018/02/24 at 08:20 UTC at EXETER AIRPORT, UK (EGTE)

Temperature: -1.0 Celsius.

Dewpoint: -4.0 Celsius.

Relative Humidity: 80%

Windchill Factor: -5.

Winds: North-northeast at 13 km/h or 7 knots.

Mean Sea level Pressure: 101.90 kilopascals.

Horizontal visibility: 5.59 statute miles or 8.95 kilometers.

Coded METAR:

EGTE 240820Z 02007KT 340V040 9000 NSC M01/M04 Q1019=